sensor_id;sensor_type;location;lat;lon;timestamp;P1;durP1;ratioP1;P2;durP2;ratioP2
65691;SDS011;52411;52.716;6.696;2024-01-07T00:01:57;26.73;;;13.63;;
65691;SDS011;52411;52.716;6.696;2024-01-07T00:04:22;28.30;;;13.93;;
65691;SDS011;52411;52.716;6.696;2024-01-07T00:06:48;24.92;;;14.07;;
65691;SDS011;52411;52.716;6.696;2024-01-07T00:09:13;28.52;;;14.80;;
65691;SDS011;52411;52.716;6.696;2024-01-07T00:11:39;28.35;;;14.93;;
65691;SDS011;52411;52.716;6.696;2024-01-07T00:14:05;28.63;;;15.30;;
65691;SDS011;52411;52.716;6.696;2024-01-07T00:16:31;29.95;;;14.35;;
65691;SDS011;52411;52.716;6.696;2024-01-07T00:18:56;28.98;;;14.52;;
65691;SDS011;52411;52.716;6.696;2024-01-07T00:21:22;29.40;;;14.98;;
65691;SDS011;52411;52.716;6.696;2024-01-07T00:23:49;30.73;;;14.65;;
65691;SDS011;52411;52.716;6.696;2024-01-07T00:26:14;24.45;;;13.40;;
65691;SDS011;52411;52.716;6.696;2024-01-07T00:28:40;28.17;;;14.98;;
65691;SDS011;52411;52.716;6.696;2024-01-07T00:31:05;27.92;;;14.60;;
65691;SDS011;52411;52.716;6.696;2024-01-07T00:33:33;28.33;;;14.48;;
65691;SDS011;52411;52.716;6.696;2024-01-07T00:35:59;26.63;;;14.57;;
65691;SDS011;52411;52.716;6.696;2024-01-07T00:38:25;27.70;;;14.13;;
65691;SDS011;52411;52.716;6.696;2024-01-07T00:40:50;32.67;;;15.45;;
65691;SDS011;52411;52.716;6.696;2024-01-07T00:43:16;28.38;;;14.27;;
65691;SDS011;52411;52.716;6.696;2024-01-07T00:45:41;25.83;;;14.25;;
65691;SDS011;52411;52.716;6.696;2024-01-07T00:48:07;27.05;;;14.50;;
65691;SDS011;52411;52.716;6.696;2024-01-07T00:50:33;23.73;;;12.32;;
65691;SDS011;52411;52.716;6.696;2024-01-07T00:52:58;25.58;;;13.63;;
65691;SDS011;52411;52.716;6.696;2024-01-07T00:55:24;27.35;;;13.45;;
65691;SDS011;52411;52.716;6.696;2024-01-07T00:57:50;26.15;;;13.10;;
65691;SDS011;52411;52.716;6.696;2024-01-07T01:00:15;25.80;;;12.82;;
65691;SDS011;52411;52.716;6.696;2024-01-07T01:02:41;23.67;;;12.57;;
65691;SDS011;52411;52.716;6.696;2024-01-07T01:05:07;23.80;;;12.35;;
65691;SDS011;52411;52.716;6.696;2024-01-07T01:07:33;22.13;;;11.18;;
65691;SDS011;52411;52.716;6.696;2024-01-07T01:09:58;21.88;;;12.23;;
65691;SDS011;52411;52.716;6.696;2024-01-07T01:12:24;17.45;;;9.90;;
65691;SDS011;52411;52.716;6.696;2024-01-07T01:14:50;22.75;;;12.13;;
65691;SDS011;52411;52.716;6.696;2024-01-07T01:17:15;19.42;;;10.32;;
65691;SDS011;52411;52.716;6.696;2024-01-07T01:19:41;20.05;;;11.05;;
65691;SDS011;52411;52.716;6.696;2024-01-07T01:22:06;20.98;;;10.52;;
65691;SDS011;52411;52.716;6.696;2024-01-07T01:24:32;21.20;;;10.80;;
65691;SDS011;52411;52.716;6.696;2024-01-07T01:26:57;21.58;;;11.43;;
65691;SDS011;52411;52.716;6.696;2024-01-07T01:29:23;22.00;;;10.77;;
65691;SDS011;52411;52.716;6.696;2024-01-07T01:31:49;21.17;;;11.18;;
65691;SDS011;52411;52.716;6.696;2024-01-07T01:34:14;23.02;;;11.52;;
65691;SDS011;52411;52.716;6.696;2024-01-07T01:36:40;21.80;;;11.63;;
65691;SDS011;52411;52.716;6.696;2024-01-07T01:39:05;20.23;;;10.98;;
65691;SDS011;52411;52.716;6.696;2024-01-07T01:41:32;21.38;;;11.18;;
65691;SDS011;52411;52.716;6.696;2024-01-07T01:43:58;22.52;;;11.57;;
65691;SDS011;52411;52.716;6.696;2024-01-07T01:46:25;22.63;;;11.55;;
65691;SDS011;52411;52.716;6.696;2024-01-07T01:48:51;22.73;;;11.68;;
65691;SDS011;52411;52.716;6.696;2024-01-07T01:51:17;18.17;;;10.45;;
65691;SDS011;52411;52.716;6.696;2024-01-07T01:53:44;21.73;;;11.15;;
65691;SDS011;52411;52.716;6.696;2024-01-07T01:56:10;20.13;;;11.10;;
65691;SDS011;52411;52.716;6.696;2024-01-07T01:58:36;21.30;;;11.60;;
65691;SDS011;52411;52.716;6.696;2024-01-07T02:01:01;22.02;;;11.63;;
65691;SDS011;52411;52.716;6.696;2024-01-07T02:03:28;23.25;;;12.27;;
65691;SDS011;52411;52.716;6.696;2024-01-07T02:05:54;20.92;;;11.80;;
65691;SDS011;52411;52.716;6.696;2024-01-07T02:08:22;22.25;;;12.45;;
65691;SDS011;52411;52.716;6.696;2024-01-07T02:10:48;25.80;;;13.30;;
65691;SDS011;52411;52.716;6.696;2024-01-07T02:13:13;22.52;;;12.13;;
65691;SDS011;52411;52.716;6.696;2024-01-07T02:15:39;23.77;;;12.15;;
65691;SDS011;52411;52.716;6.696;2024-01-07T02:18:04;22.23;;;12.63;;
65691;SDS011;52411;52.716;6.696;2024-01-07T02:20:30;22.42;;;12.13;;
65691;SDS011;52411;52.716;6.696;2024-01-07T02:22:55;24.05;;;12.93;;
65691;SDS011;52411;52.716;6.696;2024-01-07T02:25:24;22.35;;;11.57;;
65691;SDS011;52411;52.716;6.696;2024-01-07T02:27:50;22.35;;;11.73;;
65691;SDS011;52411;52.716;6.696;2024-01-07T02:30:15;21.70;;;11.98;;
65691;SDS011;52411;52.716;6.696;2024-01-07T02:32:42;23.00;;;12.13;;
65691;SDS011;52411;52.716;6.696;2024-01-07T02:35:07;20.98;;;12.07;;
65691;SDS011;52411;52.716;6.696;2024-01-07T02:37:33;22.60;;;12.30;;
65691;SDS011;52411;52.716;6.696;2024-01-07T02:39:59;21.67;;;11.80;;
65691;SDS011;52411;52.716;6.696;2024-01-07T02:42:25;22.45;;;11.85;;
65691;SDS011;52411;52.716;6.696;2024-01-07T02:44:50;21.25;;;11.73;;
65691;SDS011;52411;52.716;6.696;2024-01-07T02:47:16;23.45;;;12.10;;
65691;SDS011;52411;52.716;6.696;2024-01-07T02:49:42;23.02;;;11.98;;
65691;SDS011;52411;52.716;6.696;2024-01-07T02:52:07;19.88;;;11.23;;
65691;SDS011;52411;52.716;6.696;2024-01-07T02:54:33;19.20;;;10.82;;
65691;SDS011;52411;52.716;6.696;2024-01-07T02:56:58;21.08;;;11.07;;
65691;SDS011;52411;52.716;6.696;2024-01-07T02:59:24;16.88;;;9.10;;
65691;SDS011;52411;52.716;6.696;2024-01-07T03:01:49;23.10;;;10.90;;
65691;SDS011;52411;52.716;6.696;2024-01-07T03:04:15;22.17;;;11.18;;
65691;SDS011;52411;52.716;6.696;2024-01-07T03:06:41;22.50;;;11.25;;
65691;SDS011;52411;52.716;6.696;2024-01-07T03:09:07;18.42;;;10.13;;
65691;SDS011;52411;52.716;6.696;2024-01-07T03:11:38;23.10;;;11.40;;
65691;SDS011;52411;52.716;6.696;2024-01-07T03:14:05;21.77;;;11.45;;
65691;SDS011;52411;52.716;6.696;2024-01-07T03:16:30;21.80;;;11.55;;
65691;SDS011;52411;52.716;6.696;2024-01-07T03:18:56;22.35;;;10.85;;
65691;SDS011;52411;52.716;6.696;2024-01-07T03:21:22;19.40;;;10.50;;
65691;SDS011;52411;52.716;6.696;2024-01-07T03:23:49;19.60;;;10.43;;
65691;SDS011;52411;52.716;6.696;2024-01-07T03:26:16;19.48;;;10.40;;
65691;SDS011;52411;52.716;6.696;2024-01-07T03:28:43;19.40;;;10.43;;
65691;SDS011;52411;52.716;6.696;2024-01-07T03:31:10;19.23;;;10.30;;
65691;SDS011;52411;52.716;6.696;2024-01-07T03:33:38;22.75;;;11.65;;
65691;SDS011;52411;52.716;6.696;2024-01-07T03:36:11;24.27;;;11.32;;
65691;SDS011;52411;52.716;6.696;2024-01-07T03:38:38;19.65;;;11.13;;
65691;SDS011;52411;52.716;6.696;2024-01-07T03:41:04;22.40;;;12.07;;
65691;SDS011;52411;52.716;6.696;2024-01-07T03:43:30;21.25;;;10.73;;
65691;SDS011;52411;52.716;6.696;2024-01-07T03:45:56;21.38;;;11.05;;
65691;SDS011;52411;52.716;6.696;2024-01-07T03:48:22;24.13;;;11.90;;
65691;SDS011;52411;52.716;6.696;2024-01-07T03:50:48;20.60;;;11.48;;
65691;SDS011;52411;52.716;6.696;2024-01-07T03:53:14;22.02;;;11.43;;
65691;SDS011;52411;52.716;6.696;2024-01-07T03:55:40;17.70;;;10.48;;
65691;SDS011;52411;52.716;6.696;2024-01-07T03:58:05;22.42;;;11.30;;
65691;SDS011;52411;52.716;6.696;2024-01-07T04:00:31;21.48;;;11.43;;
65691;SDS011;52411;52.716;6.696;2024-01-07T04:02:57;24.27;;;11.38;;
65691;SDS011;52411;52.716;6.696;2024-01-07T04:05:23;20.60;;;11.23;;
65691;SDS011;52411;52.716;6.696;2024-01-07T04:07:48;20.48;;;10.68;;
65691;SDS011;52411;52.716;6.696;2024-01-07T04:10:17;19.35;;;10.27;;
65691;SDS011;52411;52.716;6.696;2024-01-07T04:12:43;19.00;;;10.77;;
65691;SDS011;52411;52.716;6.696;2024-01-07T04:15:10;20.27;;;10.75;;
65691;SDS011;52411;52.716;6.696;2024-01-07T04:17:36;21.05;;;10.57;;
65691;SDS011;52411;52.716;6.696;2024-01-07T04:20:02;22.17;;;10.63;;
65691;SDS011;52411;52.716;6.696;2024-01-07T04:22:28;20.40;;;10.02;;
65691;SDS011;52411;52.716;6.696;2024-01-07T04:24:54;19.48;;;10.90;;
65691;SDS011;52411;52.716;6.696;2024-01-07T04:27:19;20.10;;;10.98;;
65691;SDS011;52411;52.716;6.696;2024-01-07T04:29:45;22.83;;;11.75;;
65691;SDS011;52411;52.716;6.696;2024-01-07T04:32:11;19.25;;;10.77;;
65691;SDS011;52411;52.716;6.696;2024-01-07T04:34:36;18.27;;;10.20;;
65691;SDS011;52411;52.716;6.696;2024-01-07T04:37:02;15.77;;;9.05;;
65691;SDS011;52411;52.716;6.696;2024-01-07T04:39:27;19.50;;;10.35;;
65691;SDS011;52411;52.716;6.696;2024-01-07T04:41:53;21.15;;;11.35;;
65691;SDS011;52411;52.716;6.696;2024-01-07T04:44:19;20.80;;;11.45;;
65691;SDS011;52411;52.716;6.696;2024-01-07T04:46:44;20.33;;;10.80;;
65691;SDS011;52411;52.716;6.696;2024-01-07T04:49:10;18.15;;;11.05;;
65691;SDS011;52411;52.716;6.696;2024-01-07T04:51:35;18.33;;;10.18;;
65691;SDS011;52411;52.716;6.696;2024-01-07T04:54:04;20.98;;;11.30;;
65691;SDS011;52411;52.716;6.696;2024-01-07T04:56:30;20.48;;;11.52;;
65691;SDS011;52411;52.716;6.696;2024-01-07T04:58:56;19.55;;;11.02;;
65691;SDS011;52411;52.716;6.696;2024-01-07T05:01:22;21.17;;;11.30;;
65691;SDS011;52411;52.716;6.696;2024-01-07T05:03:48;19.42;;;11.32;;
65691;SDS011;52411;52.716;6.696;2024-01-07T05:06:13;18.30;;;11.00;;
65691;SDS011;52411;52.716;6.696;2024-01-07T05:08:40;20.00;;;11.18;;
65691;SDS011;52411;52.716;6.696;2024-01-07T05:11:06;19.25;;;10.73;;
65691;SDS011;52411;52.716;6.696;2024-01-07T05:13:32;19.95;;;11.07;;
65691;SDS011;52411;52.716;6.696;2024-01-07T05:15:58;19.90;;;11.00;;
65691;SDS011;52411;52.716;6.696;2024-01-07T05:18:24;17.38;;;9.88;;
65691;SDS011;52411;52.716;6.696;2024-01-07T05:20:49;17.88;;;10.20;;
65691;SDS011;52411;52.716;6.696;2024-01-07T05:23:15;15.30;;;9.07;;
65691;SDS011;52411;52.716;6.696;2024-01-07T05:25:42;16.35;;;9.02;;
65691;SDS011;52411;52.716;6.696;2024-01-07T05:28:09;17.05;;;8.70;;
65691;SDS011;52411;52.716;6.696;2024-01-07T05:30:35;18.33;;;9.40;;
65691;SDS011;52411;52.716;6.696;2024-01-07T05:33:00;14.68;;;8.38;;
65691;SDS011;52411;52.716;6.696;2024-01-07T05:35:26;17.02;;;8.32;;
65691;SDS011;52411;52.716;6.696;2024-01-07T05:37:51;17.60;;;8.35;;
65691;SDS011;52411;52.716;6.696;2024-01-07T05:40:17;17.25;;;9.43;;
65691;SDS011;52411;52.716;6.696;2024-01-07T05:42:42;15.05;;;9.20;;
65691;SDS011;52411;52.716;6.696;2024-01-07T05:45:08;16.80;;;8.60;;
65691;SDS011;52411;52.716;6.696;2024-01-07T05:47:34;16.15;;;9.15;;
65691;SDS011;52411;52.716;6.696;2024-01-07T05:49:59;18.95;;;9.35;;
65691;SDS011;52411;52.716;6.696;2024-01-07T05:52:25;16.23;;;8.82;;
65691;SDS011;52411;52.716;6.696;2024-01-07T05:54:50;15.95;;;8.90;;
65691;SDS011;52411;52.716;6.696;2024-01-07T05:57:16;13.23;;;8.32;;
65691;SDS011;52411;52.716;6.696;2024-01-07T05:59:43;17.27;;;8.55;;
65691;SDS011;52411;52.716;6.696;2024-01-07T06:02:09;14.32;;;7.93;;
65691;SDS011;52411;52.716;6.696;2024-01-07T06:04:36;14.45;;;7.10;;
65691;SDS011;52411;52.716;6.696;2024-01-07T06:07:03;16.45;;;7.70;;
65691;SDS011;52411;52.716;6.696;2024-01-07T06:09:28;12.90;;;6.82;;
65691;SDS011;52411;52.716;6.696;2024-01-07T06:11:54;13.85;;;6.68;;
65691;SDS011;52411;52.716;6.696;2024-01-07T06:14:20;10.40;;;5.93;;
65691;SDS011;52411;52.716;6.696;2024-01-07T06:16:47;11.25;;;5.80;;
65691;SDS011;52411;52.716;6.696;2024-01-07T06:19:12;11.85;;;5.95;;
65691;SDS011;52411;52.716;6.696;2024-01-07T06:21:39;9.68;;;5.47;;
65691;SDS011;52411;52.716;6.696;2024-01-07T06:24:07;11.30;;;6.13;;
65691;SDS011;52411;52.716;6.696;2024-01-07T06:26:33;10.15;;;5.45;;
65691;SDS011;52411;52.716;6.696;2024-01-07T06:28:58;10.30;;;5.30;;
65691;SDS011;52411;52.716;6.696;2024-01-07T06:31:24;9.00;;;5.05;;
65691;SDS011;52411;52.716;6.696;2024-01-07T06:33:50;10.20;;;4.85;;
65691;SDS011;52411;52.716;6.696;2024-01-07T06:36:16;9.70;;;5.25;;
65691;SDS011;52411;52.716;6.696;2024-01-07T06:38:42;8.00;;;4.47;;
65691;SDS011;52411;52.716;6.696;2024-01-07T06:41:09;6.75;;;4.07;;
65691;SDS011;52411;52.716;6.696;2024-01-07T06:43:35;8.98;;;4.15;;
65691;SDS011;52411;52.716;6.696;2024-01-07T06:46:01;8.85;;;4.78;;
65691;SDS011;52411;52.716;6.696;2024-01-07T06:48:26;8.95;;;4.43;;
65691;SDS011;52411;52.716;6.696;2024-01-07T06:50:52;9.07;;;4.47;;
65691;SDS011;52411;52.716;6.696;2024-01-07T06:53:17;8.45;;;4.32;;
65691;SDS011;52411;52.716;6.696;2024-01-07T06:55:43;9.52;;;4.47;;
65691;SDS011;52411;52.716;6.696;2024-01-07T06:58:08;7.60;;;4.20;;
65691;SDS011;52411;52.716;6.696;2024-01-07T07:00:34;7.20;;;4.07;;
65691;SDS011;52411;52.716;6.696;2024-01-07T07:02:59;8.82;;;3.92;;
65691;SDS011;52411;52.716;6.696;2024-01-07T07:05:25;6.30;;;4.10;;
65691;SDS011;52411;52.716;6.696;2024-01-07T07:07:50;8.85;;;4.05;;
65691;SDS011;52411;52.716;6.696;2024-01-07T07:10:16;7.35;;;4.10;;
65691;SDS011;52411;52.716;6.696;2024-01-07T07:12:41;6.60;;;3.80;;
65691;SDS011;52411;52.716;6.696;2024-01-07T07:15:07;7.85;;;3.83;;
65691;SDS011;52411;52.716;6.696;2024-01-07T07:17:34;5.25;;;3.40;;
65691;SDS011;52411;52.716;6.696;2024-01-07T07:20:01;5.80;;;3.15;;
65691;SDS011;52411;52.716;6.696;2024-01-07T07:22:27;6.13;;;3.75;;
65691;SDS011;52411;52.716;6.696;2024-01-07T07:24:53;6.03;;;3.40;;
65691;SDS011;52411;52.716;6.696;2024-01-07T07:27:19;7.78;;;3.50;;
65691;SDS011;52411;52.716;6.696;2024-01-07T07:29:44;8.07;;;3.70;;
65691;SDS011;52411;52.716;6.696;2024-01-07T07:32:10;6.90;;;3.88;;
65691;SDS011;52411;52.716;6.696;2024-01-07T07:34:35;6.28;;;3.40;;
65691;SDS011;52411;52.716;6.696;2024-01-07T07:37:02;6.78;;;3.72;;
65691;SDS011;52411;52.716;6.696;2024-01-07T07:39:27;5.38;;;3.22;;
65691;SDS011;52411;52.716;6.696;2024-01-07T07:41:53;5.55;;;3.45;;
65691;SDS011;52411;52.716;6.696;2024-01-07T07:44:19;7.55;;;3.55;;
65691;SDS011;52411;52.716;6.696;2024-01-07T07:46:44;5.60;;;3.70;;
65691;SDS011;52411;52.716;6.696;2024-01-07T07:49:10;6.65;;;3.33;;
65691;SDS011;52411;52.716;6.696;2024-01-07T07:51:36;5.63;;;3.25;;
65691;SDS011;52411;52.716;6.696;2024-01-07T07:54:01;6.38;;;3.17;;
65691;SDS011;52411;52.716;6.696;2024-01-07T07:56:28;6.72;;;3.25;;
65691;SDS011;52411;52.716;6.696;2024-01-07T07:58:54;6.60;;;3.60;;
65691;SDS011;52411;52.716;6.696;2024-01-07T08:01:19;7.72;;;3.35;;
65691;SDS011;52411;52.716;6.696;2024-01-07T08:03:45;6.85;;;3.28;;
65691;SDS011;52411;52.716;6.696;2024-01-07T08:06:10;6.35;;;3.40;;
65691;SDS011;52411;52.716;6.696;2024-01-07T08:08:36;6.18;;;3.38;;
65691;SDS011;52411;52.716;6.696;2024-01-07T08:11:02;7.22;;;3.53;;
65691;SDS011;52411;52.716;6.696;2024-01-07T08:13:27;5.85;;;3.30;;
65691;SDS011;52411;52.716;6.696;2024-01-07T08:15:53;7.15;;;3.65;;
65691;SDS011;52411;52.716;6.696;2024-01-07T08:18:18;6.68;;;3.35;;
65691;SDS011;52411;52.716;6.696;2024-01-07T08:20:44;6.35;;;3.42;;
65691;SDS011;52411;52.716;6.696;2024-01-07T08:23:10;5.72;;;3.33;;
65691;SDS011;52411;52.716;6.696;2024-01-07T08:25:36;5.82;;;3.15;;
65691;SDS011;52411;52.716;6.696;2024-01-07T08:28:01;5.43;;;3.05;;
65691;SDS011;52411;52.716;6.696;2024-01-07T08:30:27;4.85;;;2.63;;
65691;SDS011;52411;52.716;6.696;2024-01-07T08:32:53;6.32;;;3.10;;
65691;SDS011;52411;52.716;6.696;2024-01-07T08:35:18;5.05;;;3.05;;
65691;SDS011;52411;52.716;6.696;2024-01-07T08:37:44;4.53;;;3.00;;
65691;SDS011;52411;52.716;6.696;2024-01-07T08:40:10;4.95;;;3.00;;
65691;SDS011;52411;52.716;6.696;2024-01-07T08:42:36;6.03;;;3.20;;
65691;SDS011;52411;52.716;6.696;2024-01-07T08:45:01;4.82;;;3.05;;
65691;SDS011;52411;52.716;6.696;2024-01-07T08:47:29;5.40;;;2.75;;
65691;SDS011;52411;52.716;6.696;2024-01-07T08:49:56;8.65;;;3.13;;
65691;SDS011;52411;52.716;6.696;2024-01-07T08:52:22;7.18;;;3.20;;
65691;SDS011;52411;52.716;6.696;2024-01-07T08:54:48;4.55;;;2.63;;
65691;SDS011;52411;52.716;6.696;2024-01-07T08:57:13;4.72;;;2.70;;
65691;SDS011;52411;52.716;6.696;2024-01-07T08:59:39;5.28;;;3.10;;
65691;SDS011;52411;52.716;6.696;2024-01-07T09:02:04;6.65;;;2.80;;
65691;SDS011;52411;52.716;6.696;2024-01-07T09:04:30;4.53;;;3.03;;
65691;SDS011;52411;52.716;6.696;2024-01-07T09:06:57;7.80;;;2.90;;
65691;SDS011;52411;52.716;6.696;2024-01-07T09:09:22;4.13;;;2.72;;
65691;SDS011;52411;52.716;6.696;2024-01-07T09:11:49;4.45;;;2.30;;
65691;SDS011;52411;52.716;6.696;2024-01-07T09:14:14;3.65;;;2.40;;
65691;SDS011;52411;52.716;6.696;2024-01-07T09:16:40;4.53;;;2.63;;
65691;SDS011;52411;52.716;6.696;2024-01-07T09:19:05;4.13;;;2.60;;
65691;SDS011;52411;52.716;6.696;2024-01-07T09:21:31;5.63;;;2.55;;
65691;SDS011;52411;52.716;6.696;2024-01-07T09:23:56;4.63;;;2.55;;
65691;SDS011;52411;52.716;6.696;2024-01-07T09:26:22;4.97;;;3.05;;
65691;SDS011;52411;52.716;6.696;2024-01-07T09:28:47;4.72;;;3.00;;
65691;SDS011;52411;52.716;6.696;2024-01-07T09:31:13;4.10;;;2.60;;
65691;SDS011;52411;52.716;6.696;2024-01-07T09:33:40;7.25;;;3.60;;
65691;SDS011;52411;52.716;6.696;2024-01-07T09:36:06;5.00;;;3.20;;
65691;SDS011;52411;52.716;6.696;2024-01-07T09:38:33;5.70;;;2.80;;
65691;SDS011;52411;52.716;6.696;2024-01-07T09:40:59;6.22;;;3.10;;
65691;SDS011;52411;52.716;6.696;2024-01-07T09:43:24;7.65;;;3.15;;
65691;SDS011;52411;52.716;6.696;2024-01-07T09:45:50;4.85;;;2.55;;
65691;SDS011;52411;52.716;6.696;2024-01-07T09:48:18;5.72;;;2.80;;
65691;SDS011;52411;52.716;6.696;2024-01-07T09:50:44;5.40;;;2.85;;
65691;SDS011;52411;52.716;6.696;2024-01-07T09:53:16;4.13;;;2.83;;
65691;SDS011;52411;52.716;6.696;2024-01-07T09:55:57;5.32;;;2.92;;
65691;SDS011;52411;52.716;6.696;2024-01-07T09:58:32;4.47;;;2.70;;
65691;SDS011;52411;52.716;6.696;2024-01-07T10:00:58;6.80;;;2.75;;
65691;SDS011;52411;52.716;6.696;2024-01-07T10:03:24;5.32;;;2.72;;
65691;SDS011;52411;52.716;6.696;2024-01-07T10:05:50;5.55;;;2.80;;
65691;SDS011;52411;52.716;6.696;2024-01-07T10:08:16;4.30;;;2.53;;
65691;SDS011;52411;52.716;6.696;2024-01-07T10:10:42;6.43;;;2.60;;
65691;SDS011;52411;52.716;6.696;2024-01-07T10:13:08;6.25;;;3.08;;
65691;SDS011;52411;52.716;6.696;2024-01-07T10:15:34;4.75;;;2.67;;
65691;SDS011;52411;52.716;6.696;2024-01-07T10:18:03;4.40;;;2.67;;
65691;SDS011;52411;52.716;6.696;2024-01-07T10:20:31;5.05;;;2.78;;
65691;SDS011;52411;52.716;6.696;2024-01-07T10:23:03;4.70;;;2.75;;
65691;SDS011;52411;52.716;6.696;2024-01-07T10:25:32;5.07;;;2.72;;
65691;SDS011;52411;52.716;6.696;2024-01-07T10:28:01;5.30;;;2.40;;
65691;SDS011;52411;52.716;6.696;2024-01-07T10:30:27;6.60;;;2.70;;
65691;SDS011;52411;52.716;6.696;2024-01-07T10:32:59;6.10;;;2.50;;
65691;SDS011;52411;52.716;6.696;2024-01-07T10:35:28;3.78;;;2.40;;
65691;SDS011;52411;52.716;6.696;2024-01-07T10:37:58;3.78;;;2.40;;
65691;SDS011;52411;52.716;6.696;2024-01-07T10:40:26;3.10;;;2.08;;
65691;SDS011;52411;52.716;6.696;2024-01-07T10:42:52;5.47;;;2.55;;
65691;SDS011;52411;52.716;6.696;2024-01-07T10:45:19;4.28;;;2.25;;
65691;SDS011;52411;52.716;6.696;2024-01-07T10:47:45;3.92;;;2.25;;
65691;SDS011;52411;52.716;6.696;2024-01-07T10:50:19;2.83;;;1.95;;
65691;SDS011;52411;52.716;6.696;2024-01-07T10:52:49;4.88;;;2.28;;
65691;SDS011;52411;52.716;6.696;2024-01-07T10:55:18;5.35;;;2.22;;
65691;SDS011;52411;52.716;6.696;2024-01-07T10:57:44;2.65;;;2.08;;
65691;SDS011;52411;52.716;6.696;2024-01-07T11:00:12;3.15;;;2.10;;
65691;SDS011;52411;52.716;6.696;2024-01-07T11:05:27;3.85;;;2.17;;
65691;SDS011;52411;52.716;6.696;2024-01-07T11:08:05;3.65;;;2.10;;
65691;SDS011;52411;52.716;6.696;2024-01-07T11:10:47;4.15;;;2.15;;
65691;SDS011;52411;52.716;6.696;2024-01-07T11:13:31;3.72;;;2.33;;
65691;SDS011;52411;52.716;6.696;2024-01-07T11:16:02;3.63;;;2.17;;
65691;SDS011;52411;52.716;6.696;2024-01-07T11:18:39;3.88;;;2.05;;
65691;SDS011;52411;52.716;6.696;2024-01-07T11:21:05;4.20;;;2.50;;
65691;SDS011;52411;52.716;6.696;2024-01-07T11:26:05;4.90;;;2.10;;
65691;SDS011;52411;52.716;6.696;2024-01-07T11:31:20;4.30;;;2.45;;
65691;SDS011;52411;52.716;6.696;2024-01-07T11:33:47;4.75;;;2.30;;
65691;SDS011;52411;52.716;6.696;2024-01-07T11:36:15;3.95;;;2.35;;
65691;SDS011;52411;52.716;6.696;2024-01-07T11:38:42;4.25;;;2.17;;
65691;SDS011;52411;52.716;6.696;2024-01-07T11:41:12;6.65;;;2.63;;
65691;SDS011;52411;52.716;6.696;2024-01-07T11:43:51;4.50;;;2.40;;
65691;SDS011;52411;52.716;6.696;2024-01-07T11:46:18;4.78;;;2.15;;
65691;SDS011;52411;52.716;6.696;2024-01-07T11:48:44;6.03;;;2.92;;
65691;SDS011;52411;52.716;6.696;2024-01-07T11:51:11;4.68;;;2.90;;
65691;SDS011;52411;52.716;6.696;2024-01-07T11:53:36;4.95;;;2.60;;
65691;SDS011;52411;52.716;6.696;2024-01-07T11:56:02;3.75;;;2.30;;
65691;SDS011;52411;52.716;6.696;2024-01-07T11:58:28;4.38;;;2.35;;
65691;SDS011;52411;52.716;6.696;2024-01-07T12:00:54;4.10;;;2.10;;
65691;SDS011;52411;52.716;6.696;2024-01-07T12:03:20;3.95;;;2.47;;
65691;SDS011;52411;52.716;6.696;2024-01-07T12:05:45;6.00;;;2.85;;
65691;SDS011;52411;52.716;6.696;2024-01-07T12:08:12;4.10;;;2.30;;
65691;SDS011;52411;52.716;6.696;2024-01-07T12:10:39;5.05;;;2.40;;
65691;SDS011;52411;52.716;6.696;2024-01-07T12:13:05;3.72;;;2.42;;
65691;SDS011;52411;52.716;6.696;2024-01-07T12:15:31;5.30;;;2.83;;
65691;SDS011;52411;52.716;6.696;2024-01-07T12:17:58;4.53;;;2.60;;
65691;SDS011;52411;52.716;6.696;2024-01-07T12:20:26;3.72;;;2.50;;
65691;SDS011;52411;52.716;6.696;2024-01-07T12:22:55;6.82;;;2.92;;
65691;SDS011;52411;52.716;6.696;2024-01-07T12:25:22;4.07;;;2.22;;
65691;SDS011;52411;52.716;6.696;2024-01-07T12:27:49;5.07;;;2.40;;
65691;SDS011;52411;52.716;6.696;2024-01-07T12:30:18;5.95;;;2.65;;
65691;SDS011;52411;52.716;6.696;2024-01-07T12:32:44;4.70;;;2.60;;
65691;SDS011;52411;52.716;6.696;2024-01-07T12:35:10;5.28;;;2.88;;
65691;SDS011;52411;52.716;6.696;2024-01-07T12:37:36;7.45;;;2.75;;
65691;SDS011;52411;52.716;6.696;2024-01-07T12:40:02;5.47;;;2.58;;
65691;SDS011;52411;52.716;6.696;2024-01-07T12:42:29;5.30;;;2.85;;
65691;SDS011;52411;52.716;6.696;2024-01-07T12:44:54;4.28;;;2.60;;
65691;SDS011;52411;52.716;6.696;2024-01-07T12:47:20;6.45;;;3.08;;
65691;SDS011;52411;52.716;6.696;2024-01-07T12:49:45;5.25;;;2.83;;
65691;SDS011;52411;52.716;6.696;2024-01-07T12:52:11;4.65;;;2.92;;
65691;SDS011;52411;52.716;6.696;2024-01-07T12:54:38;5.53;;;3.20;;
65691;SDS011;52411;52.716;6.696;2024-01-07T12:57:03;5.78;;;3.22;;
65691;SDS011;52411;52.716;6.696;2024-01-07T12:59:29;5.43;;;2.90;;
65691;SDS011;52411;52.716;6.696;2024-01-07T13:01:55;5.82;;;3.20;;
65691;SDS011;52411;52.716;6.696;2024-01-07T13:04:21;8.55;;;3.60;;
65691;SDS011;52411;52.716;6.696;2024-01-07T13:06:46;7.00;;;3.08;;
65691;SDS011;52411;52.716;6.696;2024-01-07T13:09:12;5.15;;;3.10;;
65691;SDS011;52411;52.716;6.696;2024-01-07T13:11:37;6.63;;;3.13;;
65691;SDS011;52411;52.716;6.696;2024-01-07T13:14:03;6.40;;;3.67;;
65691;SDS011;52411;52.716;6.696;2024-01-07T13:16:29;8.68;;;3.80;;
65691;SDS011;52411;52.716;6.696;2024-01-07T13:18:54;7.20;;;3.63;;
65691;SDS011;52411;52.716;6.696;2024-01-07T13:21:20;9.45;;;4.43;;
65691;SDS011;52411;52.716;6.696;2024-01-07T13:23:46;9.23;;;4.28;;
65691;SDS011;52411;52.716;6.696;2024-01-07T13:26:15;8.60;;;4.88;;
65691;SDS011;52411;52.716;6.696;2024-01-07T13:28:41;8.73;;;4.72;;
65691;SDS011;52411;52.716;6.696;2024-01-07T13:31:10;9.45;;;4.97;;
65691;SDS011;52411;52.716;6.696;2024-01-07T13:33:40;8.25;;;4.78;;
65691;SDS011;52411;52.716;6.696;2024-01-07T13:36:06;9.00;;;4.80;;
65691;SDS011;52411;52.716;6.696;2024-01-07T13:38:35;8.50;;;5.07;;
65691;SDS011;52411;52.716;6.696;2024-01-07T13:41:01;7.93;;;4.80;;
65691;SDS011;52411;52.716;6.696;2024-01-07T13:43:27;9.65;;;4.03;;
65691;SDS011;52411;52.716;6.696;2024-01-07T13:45:54;9.25;;;4.45;;
65691;SDS011;52411;52.716;6.696;2024-01-07T13:48:20;9.15;;;4.95;;
65691;SDS011;52411;52.716;6.696;2024-01-07T13:50:46;10.00;;;5.10;;
65691;SDS011;52411;52.716;6.696;2024-01-07T13:53:13;8.65;;;4.90;;
65691;SDS011;52411;52.716;6.696;2024-01-07T13:55:39;11.00;;;5.22;;
65691;SDS011;52411;52.716;6.696;2024-01-07T13:58:05;8.27;;;4.70;;
65691;SDS011;52411;52.716;6.696;2024-01-07T14:00:30;9.27;;;4.63;;
65691;SDS011;52411;52.716;6.696;2024-01-07T14:02:56;9.13;;;4.80;;
65691;SDS011;52411;52.716;6.696;2024-01-07T14:05:22;8.18;;;4.30;;
65691;SDS011;52411;52.716;6.696;2024-01-07T14:07:47;8.30;;;4.95;;
65691;SDS011;52411;52.716;6.696;2024-01-07T14:10:13;9.82;;;5.25;;
65691;SDS011;52411;52.716;6.696;2024-01-07T14:12:38;8.43;;;4.57;;
65691;SDS011;52411;52.716;6.696;2024-01-07T14:15:05;9.00;;;4.78;;
65691;SDS011;52411;52.716;6.696;2024-01-07T14:17:31;9.00;;;4.85;;
65691;SDS011;52411;52.716;6.696;2024-01-07T14:19:57;9.35;;;4.82;;
65691;SDS011;52411;52.716;6.696;2024-01-07T14:22:22;8.35;;;4.50;;
65691;SDS011;52411;52.716;6.696;2024-01-07T14:24:48;10.18;;;4.45;;
65691;SDS011;52411;52.716;6.696;2024-01-07T14:27:15;6.43;;;4.25;;
65691;SDS011;52411;52.716;6.696;2024-01-07T14:29:41;9.45;;;4.25;;
65691;SDS011;52411;52.716;6.696;2024-01-07T14:32:07;9.50;;;5.18;;
65691;SDS011;52411;52.716;6.696;2024-01-07T14:34:32;9.20;;;4.95;;
65691;SDS011;52411;52.716;6.696;2024-01-07T14:36:58;8.00;;;4.70;;
65691;SDS011;52411;52.716;6.696;2024-01-07T14:39:25;9.57;;;4.57;;